createdAt,value
2022-08-27T00:01:32.215Z,2.08
2022-08-27T00:06:24.658Z,1.80
2022-08-27T00:11:18.863Z,2.08
2022-08-27T00:16:12.590Z,1.40
2022-08-27T00:21:05.021Z,2.08
2022-08-27T00:25:59.529Z,1.20
2022-08-27T00:30:51.141Z,1.40
2022-08-27T00:35:42.853Z,1.33
2022-08-27T00:40:34.756Z,1.27
2022-08-27T00:45:26.744Z,1.67
2022-08-27T00:50:28.121Z,1.30
2022-08-27T00:55:24.574Z,1.33
2022-08-27T01:00:18.582Z,1.50
2022-08-27T01:05:15.345Z,1.83
2022-08-27T01:10:11.069Z,1.85
2022-08-27T01:15:07.399Z,1.63
2022-08-27T01:20:08.957Z,1.38
2022-08-27T01:25:06.112Z,1.20
2022-08-27T01:29:58.947Z,1.77
2022-08-27T01:34:51.458Z,1.23
2022-08-27T01:39:44.674Z,1.60
2022-08-27T01:44:51.069Z,1.70
2022-08-27T01:49:42.864Z,1.55
2022-08-27T01:54:34.861Z,1.40
2022-08-27T01:59:39.115Z,1.80
2022-08-27T02:04:31.977Z,1.38
2022-08-27T02:09:23.986Z,1.48
2022-08-27T02:14:15.781Z,1.90
2022-08-27T02:19:07.571Z,1.30
2022-08-27T02:24:03.150Z,2.97
2022-08-27T02:28:55.401Z,3.97
2022-08-27T02:33:47.234Z,4.38
2022-08-27T02:38:38.972Z,4.38
2022-08-27T02:43:31.561Z,5.00
2022-08-27T02:48:24.733Z,5.63
2022-08-27T02:53:17.029Z,5.28
2022-08-27T02:58:09.788Z,5.68
2022-08-27T03:03:02.627Z,5.05
2022-08-27T03:07:54.374Z,5.53
2022-08-27T03:12:46.284Z,4.55
2022-08-27T03:17:56.528Z,4.70
2022-08-27T03:22:48.240Z,5.18
2022-08-27T03:27:39.894Z,4.10
2022-08-27T03:32:31.966Z,3.40
2022-08-27T03:37:23.622Z,3.15
2022-08-27T03:42:15.430Z,3.00
2022-08-27T03:47:07.195Z,3.75
2022-08-27T03:51:59.156Z,3.25
2022-08-27T03:56:51.533Z,3.38
2022-08-27T04:01:44.870Z,4.43
2022-08-27T04:06:36.883Z,4.15
2022-08-27T04:11:29.587Z,4.18
2022-08-27T04:16:21.832Z,3.53
2022-08-27T04:21:15.438Z,3.97
2022-08-27T04:26:09.097Z,5.22
2022-08-27T04:31:02.909Z,4.32
2022-08-27T04:36:02.814Z,4.85
2022-08-27T04:41:13.853Z,4.10
2022-08-27T04:46:06.220Z,3.90
2022-08-27T04:50:58.065Z,3.90
2022-08-27T04:55:52.648Z,3.90
2022-08-27T05:00:48.513Z,3.88
2022-08-27T05:05:41.923Z,3.97
2022-08-27T05:10:44.117Z,4.07
2022-08-27T05:15:36.111Z,4.32
2022-08-27T05:20:29.716Z,4.90
2022-08-27T05:25:22.138Z,4.95
2022-08-27T05:30:13.973Z,5.35
2022-08-27T05:35:06.561Z,8.85
2022-08-27T05:39:58.331Z,6.72
2022-08-27T05:49:41.787Z,4.88
2022-08-27T05:54:33.887Z,4.68
2022-08-27T05:59:43.812Z,4.85
2022-08-27T06:04:36.838Z,4.75
2022-08-27T06:09:29.403Z,5.30
2022-08-27T06:14:21.487Z,8.43
2022-08-27T06:19:13.405Z,5.03
2022-08-27T06:24:05.172Z,5.55
2022-08-27T06:28:58.253Z,7.85
2022-08-27T06:33:51.956Z,5.97
2022-08-27T06:38:43.815Z,5.85
2022-08-27T06:43:38.912Z,5.88
2022-08-27T06:48:30.511Z,5.38
2022-08-27T06:53:25.705Z,7.03
2022-08-27T06:58:19.341Z,6.85
2022-08-27T07:03:12.112Z,7.93
2022-08-27T07:08:05.045Z,6.65
2022-08-27T07:12:56.810Z,6.90
2022-08-27T07:17:48.614Z,6.57
2022-08-27T07:22:41.207Z,5.57
2022-08-27T07:27:32.873Z,4.95
2022-08-27T07:32:30.588Z,4.90
2022-08-27T07:37:23.610Z,4.18
2022-08-27T07:42:35.999Z,4.15
2022-08-27T07:47:27.668Z,4.32
2022-08-27T07:52:21.678Z,4.95
2022-08-27T07:57:16.331Z,4.68
2022-08-27T08:02:08.024Z,3.40
2022-08-27T08:06:59.794Z,3.25
2022-08-27T08:11:53.332Z,2.70
2022-08-27T08:16:45.289Z,2.05
2022-08-27T08:21:38.694Z,2.75
2022-08-27T08:26:30.431Z,2.20
2022-08-27T08:31:24.125Z,2.30
2022-08-27T08:36:17.515Z,2.00
2022-08-27T08:41:27.882Z,1.20
2022-08-27T08:46:37.633Z,0.90
2022-08-27T08:51:40.243Z,1.10
2022-08-27T08:56:43.727Z,0.82
2022-08-27T09:01:35.539Z,0.85
2022-08-27T09:06:32.146Z,1.02
2022-08-27T09:11:40.272Z,0.80
2022-08-27T09:16:32.683Z,0.80
2022-08-27T09:21:36.546Z,0.70
2022-08-27T09:26:31.740Z,0.88
2022-08-27T09:31:23.601Z,0.70
2022-08-27T09:36:21.614Z,1.10
2022-08-27T09:41:22.330Z,1.73
2022-08-27T09:46:21.387Z,1.25
2022-08-27T09:51:21.931Z,1.70
2022-08-27T09:56:22.767Z,1.20
2022-08-27T10:01:22.401Z,1.42
2022-08-27T10:06:14.132Z,1.83
2022-08-27T10:11:14.494Z,1.40
2022-08-27T10:16:35.185Z,1.58
2022-08-27T10:21:52.938Z,2.25
2022-08-27T10:32:08.112Z,3.08
2022-08-27T10:37:19.921Z,2.80
2022-08-27T10:42:26.874Z,2.65
2022-08-27T10:47:37.321Z,2.92
2022-08-27T10:52:44.898Z,3.13
2022-08-27T10:58:00.808Z,3.20
2022-08-27T11:02:58.689Z,2.88
2022-08-27T11:07:56.348Z,2.25
2022-08-27T11:12:51.847Z,3.03
2022-08-27T11:18:01.864Z,4.82
2022-08-27T11:23:09.662Z,3.78
2022-08-27T11:28:04.735Z,4.30
2022-08-27T11:33:13.669Z,4.03
2022-08-27T11:38:27.514Z,3.42
2022-08-27T11:43:24.817Z,4.45
2022-08-27T11:48:16.445Z,3.17
2022-08-27T11:53:08.735Z,3.65
2022-08-27T11:58:18.161Z,2.95
2022-08-27T12:03:19.059Z,2.60
2022-08-27T12:08:13.701Z,1.77
2022-08-27T12:13:08.703Z,2.95
2022-08-27T12:18:32.646Z,2.00
2022-08-27T12:23:55.350Z,1.70
2022-08-27T12:28:47.453Z,1.10
2022-08-27T12:33:46.125Z,1.20
2022-08-27T12:38:53.335Z,3.25
2022-08-27T12:43:45.773Z,1.95
2022-08-27T12:48:42.186Z,1.90
2022-08-27T12:54:10.910Z,2.00
2022-08-27T12:59:10.928Z,2.75
2022-08-27T13:04:05.501Z,2.08
2022-08-27T13:09:00.161Z,1.83
2022-08-27T13:13:53.012Z,2.38
2022-08-27T13:18:50.616Z,2.13
2022-08-27T13:23:49.067Z,2.95
2022-08-27T13:28:43.222Z,4.18
2022-08-27T13:33:37.393Z,3.25
2022-08-27T13:38:32.061Z,3.20
2022-08-27T13:43:59.254Z,2.80
2022-08-27T13:48:54.847Z,2.97
2022-08-27T13:54:07.571Z,4.30
2022-08-27T13:59:21.381Z,9.23
2022-08-27T14:04:23.478Z,2.40
2022-08-27T14:09:27.570Z,2.05
2022-08-27T14:14:19.298Z,1.80
2022-08-27T14:19:12.342Z,2.50
2022-08-27T14:24:04.427Z,1.63
2022-08-27T14:28:56.550Z,0.90
2022-08-27T14:33:48.935Z,1.25
2022-08-27T14:38:44.870Z,1.33
2022-08-27T14:43:38.185Z,1.27
2022-08-27T14:48:33.237Z,0.80
2022-08-27T14:53:26.446Z,1.38
2022-08-27T14:58:18.185Z,2.13
2022-08-27T15:03:10.938Z,1.98
2022-08-27T15:08:04.290Z,1.80
2022-08-27T15:12:56.396Z,1.70
2022-08-27T15:17:48.277Z,1.35
2022-08-27T15:22:44.188Z,2.15
2022-08-27T15:27:39.133Z,1.98
2022-08-27T15:32:33.445Z,1.55
2022-08-27T15:37:25.627Z,2.67
2022-08-27T15:42:17.513Z,2.10
2022-08-27T15:47:09.262Z,1.40
2022-08-27T15:52:01.031Z,2.13
2022-08-27T15:56:52.697Z,1.55
2022-08-27T16:01:44.883Z,1.77
2022-08-27T16:06:36.880Z,1.80
2022-08-27T16:11:28.815Z,1.80
2022-08-27T16:16:25.413Z,2.20
2022-08-27T16:21:17.339Z,2.78
2022-08-27T16:26:08.981Z,1.40
2022-08-27T16:31:01.630Z,1.80
2022-08-27T16:35:54.595Z,2.03
2022-08-27T16:40:54.789Z,1.42
2022-08-27T16:45:47.038Z,1.40
2022-08-27T16:50:39.732Z,1.52
2022-08-27T16:55:32.423Z,2.70
2022-08-27T17:00:24.382Z,2.08
2022-08-27T17:05:33.881Z,1.50
2022-08-27T17:10:31.837Z,1.40
2022-08-27T17:15:23.560Z,1.60
2022-08-27T17:20:15.511Z,1.45
2022-08-27T17:25:08.214Z,1.25
2022-08-27T17:29:59.956Z,2.70
2022-08-27T17:34:51.683Z,2.67
2022-08-27T17:39:43.387Z,2.40
2022-08-27T17:44:37.189Z,2.10
2022-08-27T17:49:31.098Z,1.65
2022-08-27T17:54:40.250Z,1.70
2022-08-27T17:59:32.037Z,1.23
2022-08-27T18:04:24.104Z,1.30
2022-08-27T18:09:16.127Z,1.42
2022-08-27T18:14:08.240Z,1.00
2022-08-27T18:19:00.282Z,1.00
2022-08-27T18:23:54.547Z,1.00
2022-08-27T18:28:47.243Z,0.70
2022-08-27T18:33:39.794Z,0.60
2022-08-27T18:38:31.633Z,0.75
2022-08-27T18:43:29.719Z,0.70
2022-08-27T18:48:23.288Z,0.60
2022-08-27T18:53:17.548Z,0.70
2022-08-27T18:58:09.509Z,0.65
2022-08-27T19:03:01.850Z,0.70
2022-08-27T19:07:53.716Z,0.60
2022-08-27T19:12:46.893Z,0.60
2022-08-27T19:17:40.261Z,0.57
2022-08-27T19:22:32.756Z,0.45
2022-08-27T19:27:26.662Z,0.30
2022-08-27T19:32:18.909Z,0.40
2022-08-27T19:37:16.800Z,0.35
2022-08-27T19:42:08.558Z,0.40
2022-08-27T19:47:00.504Z,0.40
2022-08-27T19:51:52.842Z,0.40
2022-08-27T19:56:44.634Z,0.38
2022-08-27T20:01:36.662Z,0.60
2022-08-27T20:06:31.463Z,0.40
2022-08-27T20:11:23.575Z,0.40
2022-08-27T20:16:15.326Z,0.40
2022-08-27T20:21:07.274Z,0.50
2022-08-27T20:26:01.250Z,0.50
2022-08-27T20:30:53.451Z,0.45
2022-08-27T20:35:45.274Z,0.40
2022-08-27T20:40:37.039Z,0.40
2022-08-27T20:45:30.202Z,0.45
2022-08-27T20:50:25.040Z,0.40
2022-08-27T20:55:17.752Z,0.40
2022-08-27T21:00:22.360Z,0.40
2022-08-27T21:05:16.508Z,0.50
2022-08-27T21:10:09.085Z,0.40
2022-08-27T21:15:04.093Z,0.40
2022-08-27T21:19:56.111Z,0.40
2022-08-27T21:24:47.770Z,0.40
2022-08-27T21:29:40.761Z,0.50
2022-08-27T21:34:32.505Z,0.40
2022-08-27T21:39:24.407Z,0.68
2022-08-27T21:44:16.266Z,0.47
2022-08-27T21:49:07.928Z,0.47
2022-08-27T21:54:00.134Z,0.50
2022-08-27T21:58:52.292Z,0.35
2022-08-27T22:03:50.738Z,0.40
2022-08-27T22:08:43.695Z,0.40
2022-08-27T22:13:36.048Z,0.47
2022-08-27T22:18:28.219Z,0.50
2022-08-27T22:23:21.511Z,0.47
2022-08-27T22:28:14.272Z,0.40
2022-08-27T22:33:06.184Z,0.50
2022-08-27T22:37:58.474Z,0.43
2022-08-27T22:42:50.965Z,0.50
2022-08-27T22:47:42.776Z,0.52
2022-08-27T22:52:36.203Z,0.60
2022-08-27T22:57:27.867Z,0.50
2022-08-27T23:02:19.498Z,0.40
2022-08-27T23:07:11.218Z,0.50
2022-08-27T23:12:04.387Z,0.45
2022-08-27T23:16:56.467Z,0.50
2022-08-27T23:21:48.522Z,0.50
2022-08-27T23:26:58.797Z,0.73
2022-08-27T23:31:51.441Z,0.60
2022-08-27T23:36:43.116Z,0.40
2022-08-27T23:41:35.533Z,0.40
2022-08-27T23:46:27.534Z,0.50
2022-08-27T23:51:19.330Z,0.70
2022-08-27T23:56:11.301Z,0.47
